createdAt,value
2023-02-06T00:01:48.173Z,1.60
2023-02-06T00:04:15.297Z,1.50
2023-02-06T00:06:42.546Z,1.50
2023-02-06T00:09:09.957Z,1.50
2023-02-06T00:11:36.647Z,1.50
2023-02-06T00:14:03.514Z,1.50
2023-02-06T00:16:33.438Z,1.60
2023-02-06T00:19:01.158Z,1.50
2023-02-06T00:21:29.065Z,1.40
2023-02-06T00:23:58.472Z,1.30
2023-02-06T00:26:25.660Z,1.20
2023-02-06T00:28:52.590Z,1.20
2023-02-06T00:31:19.316Z,1.10
2023-02-06T00:33:45.915Z,1.00
2023-02-06T00:36:12.543Z,1.00
2023-02-06T00:38:39.495Z,0.90
2023-02-06T00:41:06.091Z,0.90
2023-02-06T00:43:32.909Z,0.90
2023-02-06T00:45:59.514Z,0.80
2023-02-06T00:48:26.676Z,0.80
2023-02-06T00:50:53.669Z,0.80
2023-02-06T00:53:20.638Z,0.80
2023-02-06T00:55:47.229Z,0.70
2023-02-06T00:58:13.780Z,0.70
2023-02-06T01:00:40.341Z,0.60
2023-02-06T01:03:06.939Z,0.60
2023-02-06T01:05:33.784Z,0.50
2023-02-06T01:08:01.482Z,0.50
2023-02-06T01:10:29.570Z,0.60
2023-02-06T01:12:56.203Z,0.50
2023-02-06T01:15:22.800Z,0.40
2023-02-06T01:17:49.351Z,0.40
2023-02-06T01:20:16.437Z,0.30
2023-02-06T01:22:43.028Z,0.30
2023-02-06T01:25:10.056Z,0.30
2023-02-06T01:27:37.840Z,0.30
2023-02-06T01:30:06.295Z,0.40
2023-02-06T01:32:36.344Z,0.40
2023-02-06T01:35:02.930Z,0.40
2023-02-06T01:37:30.227Z,0.30
2023-02-06T01:39:56.819Z,0.30
2023-02-06T01:42:23.418Z,0.20
2023-02-06T01:45:09.960Z,0.20
2023-02-06T01:47:36.594Z,0.10
2023-02-06T01:50:03.163Z,0.10
2023-02-06T01:52:31.021Z,0.10
2023-02-06T01:55:01.991Z,0.00
2023-02-06T01:57:29.858Z,0.00
2023-02-06T02:00:05.120Z,0.00
2023-02-06T02:02:32.689Z,0.00
2023-02-06T02:05:01.315Z,0.00
2023-02-06T02:07:33.076Z,0.00
2023-02-06T02:09:59.706Z,0.00
2023-02-06T02:12:26.316Z,0.00
2023-02-06T02:14:54.782Z,0.00
2023-02-06T02:17:43.983Z,0.00
2023-02-06T02:20:47.426Z,0.00
2023-02-06T02:23:44.973Z,0.00
2023-02-06T02:26:27.070Z,-0.10
2023-02-06T02:29:22.042Z,-0.20
2023-02-06T02:32:19.441Z,-0.20
2023-02-06T02:35:23.546Z,-0.20
2023-02-06T02:37:58.306Z,-0.20
2023-02-06T02:40:38.235Z,-0.30
2023-02-06T02:43:19.686Z,-0.30
2023-02-06T02:45:53.189Z,-0.30
2023-02-06T02:48:44.867Z,-0.30
2023-02-06T02:51:12.081Z,-0.30
2023-02-06T02:53:38.711Z,-0.30
2023-02-06T02:56:33.494Z,-0.30
2023-02-06T02:59:24.046Z,-0.30
2023-02-06T03:02:02.434Z,-0.30
2023-02-06T03:04:42.661Z,-0.30
2023-02-06T03:07:29.412Z,-0.20
2023-02-06T03:10:12.654Z,-0.30
2023-02-06T03:12:45.996Z,-0.40
2023-02-06T03:15:19.140Z,-0.50
2023-02-06T03:17:59.352Z,-0.50
2023-02-06T03:20:26.484Z,-0.40
2023-02-06T03:22:54.958Z,-0.50
2023-02-06T03:25:30.377Z,-0.40
2023-02-06T03:28:00.248Z,-0.40
2023-02-06T03:30:29.600Z,-0.50
2023-02-06T03:33:03.262Z,-0.50
2023-02-06T03:35:33.563Z,-0.50
2023-02-06T03:38:00.747Z,-0.50
2023-02-06T03:40:28.535Z,-0.50
2023-02-06T03:43:01.184Z,-0.50
2023-02-06T03:45:39.526Z,-0.50
2023-02-06T03:48:15.381Z,-0.60
2023-02-06T03:50:44.160Z,-0.60
2023-02-06T03:53:13.032Z,-0.70
2023-02-06T03:55:41.064Z,-0.60
2023-02-06T03:58:16.556Z,-0.70
2023-02-06T04:00:45.711Z,-0.60
2023-02-06T04:03:14.297Z,-0.50
2023-02-06T04:05:41.241Z,-0.40
2023-02-06T04:08:07.986Z,-0.20
2023-02-06T04:10:34.520Z,-0.10
2023-02-06T04:13:01.086Z,0.00
2023-02-06T04:15:27.653Z,-0.10
2023-02-06T04:18:00.394Z,0.00
2023-02-06T04:20:29.316Z,-0.10
2023-02-06T04:22:56.486Z,-0.10
2023-02-06T04:25:23.059Z,-0.20
2023-02-06T04:27:50.278Z,-0.30
2023-02-06T04:30:18.030Z,-0.40
2023-02-06T04:32:44.700Z,-0.50
2023-02-06T04:35:11.546Z,-0.50
2023-02-06T04:37:38.141Z,-0.50
2023-02-06T04:40:05.149Z,-0.60
2023-02-06T04:42:31.712Z,-0.50
2023-02-06T04:44:58.295Z,-0.50
2023-02-06T04:47:24.867Z,-0.50
2023-02-06T04:49:51.425Z,-0.50
2023-02-06T04:52:18.027Z,-0.30
2023-02-06T04:54:44.572Z,-0.30
2023-02-06T04:57:11.158Z,-0.30
2023-02-06T04:59:37.900Z,-0.30
2023-02-06T05:02:04.476Z,-0.30
2023-02-06T05:04:31.036Z,-0.20
2023-02-06T05:06:57.683Z,-0.20
2023-02-06T05:09:24.229Z,-0.20
2023-02-06T05:11:50.791Z,-0.30
2023-02-06T05:14:17.370Z,-0.30
2023-02-06T05:16:44.014Z,-0.20
2023-02-06T05:19:10.776Z,-0.30
2023-02-06T05:21:37.337Z,-0.30
2023-02-06T05:24:04.140Z,-0.30
2023-02-06T05:26:30.681Z,-0.30
2023-02-06T05:28:57.363Z,-0.20
2023-02-06T05:31:23.960Z,-0.20
2023-02-06T05:33:54.921Z,-0.20
2023-02-06T05:36:22.510Z,-0.20
2023-02-06T05:38:49.985Z,-0.10
2023-02-06T05:41:17.028Z,-0.10
2023-02-06T05:43:44.046Z,-0.10
2023-02-06T05:46:12.712Z,-0.10
2023-02-06T05:48:39.728Z,-0.10
2023-02-06T05:51:06.438Z,0.00
2023-02-06T05:53:33.035Z,0.00
2023-02-06T05:55:59.630Z,0.00
2023-02-06T05:58:26.314Z,0.10
2023-02-06T06:00:52.856Z,0.10
2023-02-06T06:03:19.512Z,0.10
2023-02-06T06:05:46.222Z,0.10
2023-02-06T06:08:12.791Z,0.10
2023-02-06T06:10:39.496Z,0.10
2023-02-06T06:13:06.500Z,0.10
2023-02-06T06:15:33.037Z,0.10
2023-02-06T06:18:02.596Z,0.10
2023-02-06T06:20:29.361Z,0.10
2023-02-06T06:22:55.896Z,0.10
2023-02-06T06:25:22.473Z,0.00
2023-02-06T06:27:49.130Z,0.00
2023-02-06T06:30:15.881Z,0.00
2023-02-06T06:32:42.540Z,0.00
2023-02-06T06:35:09.175Z,0.00
2023-02-06T06:37:35.809Z,-0.10
2023-02-06T06:40:02.405Z,-0.10
2023-02-06T06:42:29.048Z,-0.10
2023-02-06T06:44:55.637Z,-0.10
2023-02-06T06:47:22.220Z,-0.10
2023-02-06T06:49:48.754Z,-0.10
2023-02-06T06:52:24.487Z,-0.10
2023-02-06T06:54:52.915Z,-0.10
2023-02-06T06:57:20.588Z,0.00
2023-02-06T06:59:47.204Z,-0.10
2023-02-06T07:02:14.207Z,-0.10
2023-02-06T07:04:40.773Z,-0.10
2023-02-06T07:07:07.419Z,0.00
2023-02-06T07:09:34.022Z,0.00
2023-02-06T07:12:00.574Z,0.00
2023-02-06T07:14:27.119Z,0.00
2023-02-06T07:16:53.723Z,0.00
2023-02-06T07:19:21.224Z,0.10
2023-02-06T07:21:47.791Z,0.20
2023-02-06T07:24:14.451Z,0.20
2023-02-06T07:26:41.544Z,0.30
2023-02-06T07:29:08.236Z,0.40
2023-02-06T07:31:34.908Z,0.50
2023-02-06T07:34:02.188Z,0.50
2023-02-06T07:36:28.805Z,0.50
2023-02-06T07:38:55.360Z,0.60
2023-02-06T07:41:21.931Z,0.60
2023-02-06T07:43:48.494Z,0.70
2023-02-06T07:46:15.404Z,0.80
2023-02-06T07:48:42.393Z,0.80
2023-02-06T07:51:09.659Z,0.90
2023-02-06T07:53:37.468Z,1.00
2023-02-06T07:56:18.878Z,1.00
2023-02-06T07:58:49.208Z,1.00
2023-02-06T08:01:16.336Z,1.00
2023-02-06T08:03:42.912Z,1.00
2023-02-06T08:06:11.773Z,1.10
2023-02-06T08:08:38.802Z,1.10
2023-02-06T08:11:07.691Z,1.20
2023-02-06T08:13:35.081Z,1.20
2023-02-06T08:16:12.234Z,1.30
2023-02-06T08:18:39.064Z,1.30
2023-02-06T08:21:08.022Z,1.20
2023-02-06T08:23:34.680Z,1.30
2023-02-06T08:26:06.460Z,1.30
2023-02-06T08:28:35.045Z,1.50
2023-02-06T08:31:13.203Z,1.50
2023-02-06T08:33:40.276Z,1.60
2023-02-06T08:36:07.663Z,1.60
2023-02-06T08:38:35.003Z,1.70
2023-02-06T08:41:01.617Z,1.80
2023-02-06T08:43:28.366Z,1.80
2023-02-06T08:45:59.457Z,2.00
2023-02-06T08:48:26.755Z,2.00
2023-02-06T08:51:05.487Z,2.10
2023-02-06T08:53:32.189Z,2.30
2023-02-06T08:56:00.787Z,2.30
2023-02-06T08:58:27.736Z,2.40
2023-02-06T09:00:54.667Z,2.40
2023-02-06T09:03:22.879Z,2.30
2023-02-06T09:05:50.354Z,2.20
2023-02-06T09:08:17.359Z,2.10
2023-02-06T09:10:43.888Z,2.00
2023-02-06T09:13:10.448Z,2.00
2023-02-06T09:15:37.763Z,2.00
2023-02-06T09:18:04.608Z,2.00
2023-02-06T09:20:31.178Z,2.10
2023-02-06T09:22:57.742Z,2.30
2023-02-06T09:25:24.318Z,2.50
2023-02-06T09:27:50.907Z,2.50
2023-02-06T09:30:17.525Z,2.70
2023-02-06T09:32:44.410Z,3.10
2023-02-06T09:35:10.981Z,3.30
2023-02-06T09:37:37.622Z,3.30
2023-02-06T09:40:04.473Z,3.50
2023-02-06T09:42:37.727Z,3.80
2023-02-06T09:45:21.232Z,3.70
2023-02-06T09:47:51.984Z,3.50
2023-02-06T09:50:27.456Z,3.40
2023-02-06T09:52:59.845Z,3.40
2023-02-06T09:55:43.662Z,3.30
2023-02-06T09:58:26.156Z,3.30
2023-02-06T10:01:00.755Z,3.10
2023-02-06T10:03:52.220Z,3.10
2023-02-06T10:06:21.830Z,3.00
2023-02-06T10:08:52.127Z,3.00
2023-02-06T10:11:23.494Z,3.10
2023-02-06T10:14:01.935Z,3.30
2023-02-06T10:16:44.086Z,3.40
2023-02-06T10:19:38.219Z,3.40
2023-02-06T10:22:44.911Z,3.40
2023-02-06T10:25:14.283Z,3.60
2023-02-06T10:27:44.384Z,3.90
2023-02-06T10:30:17.612Z,4.00
2023-02-06T10:32:58.328Z,3.90
2023-02-06T10:35:39.647Z,3.80
2023-02-06T10:38:46.935Z,3.90
2023-02-06T10:41:48.726Z,4.40
2023-02-06T10:44:27.843Z,4.40
2023-02-06T10:46:55.598Z,4.50
2023-02-06T10:49:40.079Z,4.70
2023-02-06T10:52:30.261Z,5.00
2023-02-06T10:55:01.008Z,5.30
2023-02-06T10:57:28.701Z,5.70
2023-02-06T11:00:00.077Z,5.80
2023-02-06T11:02:33.917Z,5.60
2023-02-06T11:05:14.582Z,5.70
2023-02-06T11:07:44.878Z,5.80
2023-02-06T11:10:16.673Z,5.70
2023-02-06T11:13:05.622Z,5.60
2023-02-06T11:15:46.871Z,5.50
2023-02-06T11:18:19.398Z,5.60
2023-02-06T11:20:48.138Z,5.50
2023-02-06T11:23:27.273Z,5.80
2023-02-06T11:26:13.906Z,5.90
2023-02-06T11:28:52.354Z,5.70
2023-02-06T11:31:21.533Z,5.70
2023-02-06T11:33:56.040Z,5.70
2023-02-06T11:36:38.841Z,5.90
2023-02-06T11:39:31.697Z,5.90
2023-02-06T11:42:03.811Z,5.90
2023-02-06T11:44:41.587Z,5.80
2023-02-06T11:47:29.503Z,5.90
2023-02-06T11:50:16.124Z,6.00
2023-02-06T11:52:46.769Z,6.00
2023-02-06T11:55:31.650Z,6.00
2023-02-06T11:58:02.982Z,6.10
2023-02-06T12:00:30.292Z,6.30
2023-02-06T12:02:57.238Z,6.40
2023-02-06T12:05:28.487Z,6.60
2023-02-06T12:08:06.279Z,6.60
2023-02-06T12:10:36.514Z,6.60
2023-02-06T12:13:33.619Z,6.60
2023-02-06T12:16:03.716Z,6.70
2023-02-06T12:18:37.054Z,6.70
2023-02-06T12:21:07.823Z,6.60
2023-02-06T12:23:50.498Z,6.50
2023-02-06T12:26:19.846Z,6.60
2023-02-06T12:28:54.921Z,6.50
2023-02-06T12:31:24.680Z,6.40
2023-02-06T12:33:58.735Z,6.50
2023-02-06T12:36:34.342Z,6.60
2023-02-06T12:39:16.666Z,6.90
2023-02-06T12:42:04.311Z,7.10
2023-02-06T12:44:45.470Z,7.50
2023-02-06T12:47:33.963Z,7.70
2023-02-06T12:50:27.490Z,7.80
2023-02-06T12:52:58.923Z,8.10
2023-02-06T12:55:35.169Z,7.90
2023-02-06T12:58:03.141Z,7.90
2023-02-06T13:00:55.052Z,7.90
2023-02-06T13:03:57.252Z,7.80
2023-02-06T13:06:29.879Z,7.60
2023-02-06T13:09:02.103Z,7.60
2023-02-06T13:11:33.028Z,7.50
2023-02-06T13:14:06.653Z,7.70
2023-02-06T13:16:54.499Z,7.80
2023-02-06T13:19:51.015Z,8.00
2023-02-06T13:22:19.257Z,8.10
2023-02-06T13:24:48.594Z,8.20
2023-02-06T13:27:36.837Z,8.20
2023-02-06T13:30:29.941Z,8.20
2023-02-06T13:33:18.987Z,8.20
2023-02-06T13:36:04.526Z,8.30
2023-02-06T13:38:34.086Z,8.30
2023-02-06T13:41:13.031Z,8.50
2023-02-06T13:43:48.929Z,8.60
2023-02-06T13:46:19.736Z,8.70
2023-02-06T13:49:34.041Z,8.60
2023-02-06T13:52:39.902Z,8.30
2023-02-06T13:55:37.508Z,7.80
2023-02-06T13:58:11.082Z,7.40
2023-02-06T14:00:44.949Z,7.20
2023-02-06T14:03:33.381Z,7.30
2023-02-06T14:06:39.991Z,7.40
2023-02-06T14:09:43.844Z,7.40
2023-02-06T14:12:44.343Z,7.20
2023-02-06T14:15:10.858Z,7.20
2023-02-06T14:17:46.396Z,7.20
2023-02-06T14:20:15.686Z,7.20
2023-02-06T14:23:18.486Z,7.10
2023-02-06T14:26:12.836Z,7.00
2023-02-06T14:29:02.671Z,6.90
2023-02-06T14:32:01.769Z,6.70
2023-02-06T14:34:52.886Z,6.60
2023-02-06T14:37:55.754Z,6.60
2023-02-06T14:40:29.060Z,6.60
2023-02-06T14:42:58.133Z,6.60
2023-02-06T14:45:36.038Z,6.70
2023-02-06T14:48:19.932Z,6.60
2023-02-06T14:50:50.596Z,6.70
2023-02-06T14:53:21.771Z,6.80
2023-02-06T14:55:48.358Z,6.90
2023-02-06T14:58:26.900Z,6.90
2023-02-06T15:00:55.328Z,6.90
2023-02-06T15:03:26.909Z,6.80
2023-02-06T15:06:08.938Z,6.80
2023-02-06T15:08:35.605Z,6.80
2023-02-06T15:11:07.336Z,6.80
2023-02-06T15:13:35.519Z,6.80
2023-02-06T15:16:06.148Z,6.70
2023-02-06T15:18:36.263Z,6.80
2023-02-06T15:21:08.416Z,6.80
2023-02-06T15:23:38.123Z,6.80
2023-02-06T15:26:27.077Z,6.70
2023-02-06T15:29:02.525Z,6.80
2023-02-06T15:31:29.949Z,6.80
2023-02-06T15:34:00.813Z,6.70
2023-02-06T15:36:36.801Z,6.70
2023-02-06T15:39:06.897Z,6.70
2023-02-06T15:41:34.452Z,6.70
2023-02-06T15:44:15.065Z,6.70
2023-02-06T15:46:42.540Z,6.60
2023-02-06T15:49:18.939Z,6.40
2023-02-06T15:51:54.774Z,6.40
2023-02-06T15:54:24.876Z,6.30
2023-02-06T15:57:07.629Z,6.20
2023-02-06T15:59:39.283Z,6.10
2023-02-06T16:02:07.176Z,6.20
2023-02-06T16:04:40.718Z,6.10
2023-02-06T16:07:31.665Z,6.10
2023-02-06T16:10:24.531Z,6.10
2023-02-06T16:12:52.144Z,6.00
2023-02-06T16:15:35.361Z,6.00
2023-02-06T16:18:23.421Z,5.90
2023-02-06T16:20:50.590Z,6.00
2023-02-06T16:23:28.888Z,5.90
2023-02-06T16:26:14.281Z,5.90
2023-02-06T16:28:53.946Z,5.80
2023-02-06T16:31:21.012Z,5.80
2023-02-06T16:33:51.022Z,5.80
2023-02-06T16:36:19.241Z,5.80
2023-02-06T16:38:57.701Z,5.80
2023-02-06T16:41:39.074Z,5.70
2023-02-06T16:44:14.350Z,5.60
2023-02-06T16:46:41.539Z,5.60
2023-02-06T16:49:18.879Z,5.40
2023-02-06T16:51:48.004Z,5.40
2023-02-06T16:54:23.232Z,5.30
2023-02-06T16:56:50.412Z,5.20
2023-02-06T16:59:18.789Z,5.10
2023-02-06T17:05:37.160Z,4.90
2023-02-06T17:08:20.406Z,4.80
2023-02-06T17:10:47.672Z,4.70
2023-02-06T17:13:16.961Z,4.60
2023-02-06T17:15:46.882Z,4.50
2023-02-06T17:18:16.549Z,4.50
2023-02-06T17:20:45.896Z,4.40
2023-02-06T17:23:13.012Z,4.70
2023-02-06T17:25:41.290Z,4.20
2023-02-06T17:28:09.819Z,4.10
2023-02-06T17:30:37.890Z,4.00
2023-02-06T17:33:06.165Z,3.90
2023-02-06T17:35:33.545Z,3.90
2023-02-06T17:38:00.137Z,3.80
2023-02-06T17:40:30.038Z,3.80
2023-02-06T17:42:57.707Z,3.80
2023-02-06T17:45:24.415Z,3.70
2023-02-06T17:47:51.208Z,3.70
2023-02-06T17:50:23.323Z,3.60
2023-02-06T17:52:52.614Z,3.50
2023-02-06T17:55:19.275Z,3.50
2023-02-06T17:57:45.953Z,3.40
2023-02-06T18:00:14.957Z,3.30
2023-02-06T18:02:41.760Z,3.20
2023-02-06T18:05:09.052Z,3.20
2023-02-06T18:07:38.102Z,3.20
2023-02-06T18:10:05.321Z,3.10
2023-02-06T18:12:31.985Z,3.00
2023-02-06T18:14:58.905Z,2.90
2023-02-06T18:17:25.782Z,2.90
2023-02-06T18:19:52.519Z,2.90
2023-02-06T18:22:21.766Z,2.90
2023-02-06T18:24:49.295Z,3.00
2023-02-06T18:27:19.230Z,2.90
2023-02-06T18:29:50.229Z,2.80
2023-02-06T18:32:19.106Z,2.80
2023-02-06T18:34:46.484Z,2.80
2023-02-06T18:37:13.154Z,2.80
2023-02-06T18:39:39.732Z,2.90
2023-02-06T18:42:25.324Z,2.90
2023-02-06T18:44:51.950Z,2.90
2023-02-06T18:47:19.633Z,2.90
2023-02-06T18:49:46.672Z,2.90
2023-02-06T18:52:13.376Z,2.80
2023-02-06T18:54:40.081Z,2.70
2023-02-06T18:57:07.149Z,2.60
2023-02-06T18:59:34.691Z,2.60
2023-02-06T19:02:01.924Z,2.50
2023-02-06T19:04:28.675Z,2.40
2023-02-06T19:06:55.338Z,2.40
2023-02-06T19:09:22.032Z,2.40
2023-02-06T19:11:48.869Z,2.30
2023-02-06T19:14:17.190Z,2.20
2023-02-06T19:16:47.209Z,2.20
2023-02-06T19:19:14.316Z,2.20
2023-02-06T19:21:41.180Z,2.10
2023-02-06T19:24:10.988Z,2.00
2023-02-06T19:26:37.657Z,2.00
2023-02-06T19:29:05.128Z,2.00
2023-02-06T19:31:32.253Z,1.90
2023-02-06T19:34:00.637Z,1.90
2023-02-06T19:36:28.913Z,1.80
2023-02-06T19:39:01.256Z,1.70
2023-02-06T19:41:30.218Z,1.70
2023-02-06T19:43:58.056Z,1.70
2023-02-06T19:46:27.213Z,1.70
2023-02-06T19:48:54.960Z,1.70
2023-02-06T19:51:27.841Z,1.60
2023-02-06T19:53:55.571Z,1.50
2023-02-06T19:56:28.053Z,1.50
2023-02-06T19:58:56.542Z,1.40
2023-02-06T20:01:24.628Z,1.40
2023-02-06T20:03:52.268Z,1.30
2023-02-06T20:06:18.941Z,1.30
2023-02-06T20:08:46.991Z,1.20
2023-02-06T20:11:16.680Z,1.20
2023-02-06T20:13:43.878Z,1.10
2023-02-06T20:16:24.879Z,1.10
2023-02-06T20:18:52.636Z,1.20
2023-02-06T20:21:27.953Z,1.10
2023-02-06T20:23:56.241Z,1.00
2023-02-06T20:26:25.514Z,1.00
2023-02-06T20:28:52.866Z,1.00
2023-02-06T20:31:19.650Z,1.00
2023-02-06T20:33:47.759Z,1.00
2023-02-06T20:36:17.225Z,1.00
2023-02-06T20:38:49.258Z,0.90
2023-02-06T20:41:16.887Z,0.90
2023-02-06T20:46:17.170Z,0.80
2023-02-06T20:48:45.739Z,0.80
2023-02-06T20:51:13.805Z,0.80
2023-02-06T20:53:40.790Z,0.70
2023-02-06T20:56:12.352Z,0.70
2023-02-06T20:58:39.144Z,0.80
2023-02-06T21:01:20.175Z,0.70
2023-02-06T21:03:46.977Z,0.70
2023-02-06T21:06:14.352Z,0.70
2023-02-06T21:08:41.789Z,0.60
2023-02-06T21:11:09.276Z,0.70
2023-02-06T21:13:36.231Z,0.70
2023-02-06T21:16:02.865Z,0.60
2023-02-06T21:18:30.897Z,0.60
2023-02-06T21:21:06.519Z,0.50
2023-02-06T21:23:33.447Z,0.50
2023-02-06T21:26:00.225Z,0.40
2023-02-06T21:28:26.884Z,0.40
2023-02-06T21:31:00.305Z,0.50
2023-02-06T21:33:27.225Z,0.50
2023-02-06T21:35:54.212Z,0.50
2023-02-06T21:38:21.314Z,0.50
2023-02-06T21:40:48.967Z,0.50
2023-02-06T21:43:15.571Z,0.50
2023-02-06T21:45:46.158Z,0.50
2023-02-06T21:48:12.735Z,0.50
2023-02-06T21:50:40.675Z,0.50
2023-02-06T21:53:08.984Z,0.60
2023-02-06T21:55:41.472Z,0.50
2023-02-06T21:58:08.076Z,0.50
2023-02-06T22:00:34.682Z,0.50
2023-02-06T22:03:01.339Z,0.60
2023-02-06T22:05:28.958Z,0.70
2023-02-06T22:07:56.768Z,0.80
2023-02-06T22:10:23.357Z,0.90
2023-02-06T22:12:50.077Z,1.00
2023-02-06T22:15:16.910Z,1.10
2023-02-06T22:17:43.493Z,1.20
2023-02-06T22:20:10.251Z,1.20
2023-02-06T22:22:41.009Z,1.20
2023-02-06T22:25:11.687Z,1.20
2023-02-06T22:27:38.693Z,1.20
2023-02-06T22:30:07.213Z,1.10
2023-02-06T22:32:37.321Z,1.10
2023-02-06T22:35:05.004Z,1.20
2023-02-06T22:37:33.230Z,1.10
2023-02-06T22:39:59.816Z,1.00
2023-02-06T22:42:26.654Z,1.00
2023-02-06T22:44:53.240Z,0.90
2023-02-06T22:47:19.813Z,0.90
2023-02-06T22:49:46.416Z,0.90
2023-02-06T22:52:31.643Z,0.70
2023-02-06T22:54:58.272Z,0.80
2023-02-06T22:57:24.878Z,0.80
2023-02-06T22:59:51.481Z,0.80
2023-02-06T23:02:18.142Z,0.70
2023-02-06T23:04:44.757Z,0.70
2023-02-06T23:07:11.350Z,0.60
2023-02-06T23:09:38.975Z,0.60
2023-02-06T23:12:06.306Z,0.60
2023-02-06T23:14:33.534Z,0.60
2023-02-06T23:17:01.140Z,0.60
2023-02-06T23:19:28.502Z,0.50
2023-02-06T23:21:55.296Z,0.50
2023-02-06T23:24:22.272Z,0.40
2023-02-06T23:26:50.816Z,0.40
2023-02-06T23:29:19.304Z,0.40
2023-02-06T23:31:47.177Z,0.30
2023-02-06T23:34:14.944Z,0.30
2023-02-06T23:36:42.040Z,0.20
2023-02-06T23:39:08.656Z,0.20
2023-02-06T23:41:35.216Z,0.20
2023-02-06T23:44:04.501Z,0.10
2023-02-06T23:46:33.503Z,0.10
2023-02-06T23:49:00.096Z,0.10
2023-02-06T23:51:27.168Z,0.00
2023-02-06T23:53:53.915Z,0.00
2023-02-06T23:56:24.853Z,-0.10
2023-02-06T23:58:52.643Z,-0.10
